Time;durP1;ratioP1;P1;durP2;ratioP2;P2;SDS_P1;SDS_P2;PMS_P1;PMS_P2;Temp;Humidity;BMP_temperature;BMP_pressure;BME280_temperature;BME280_humidity;BME280_pressure;Samples;Min_cycle;Max_cycle;Signal;HPM_P1;HPM_P2
2024/04/04 00:02:28;;;;;;;11.52;6.25;;;;;;;8.85;100.00;99835.97;4989405;28;20416;-80
2024/04/04 00:04:58;;;;;;;10.45;6.15;;;;;;;8.89;100.00;99832.69;4990137;28;20416;-81
2024/04/04 00:07:26;;;;;;;10.00;6.07;;;;;;;8.87;100.00;99835.69;4969884;28;20438;-82
2024/04/04 00:09:53;;;;;;;10.13;6.40;;;;;;;8.92;100.00;99837.53;4990079;28;20450;-81
2024/04/04 00:12:20;;;;;;;10.50;6.25;;;;;;;8.89;100.00;99833.47;4981840;28;20414;-81
2024/04/04 00:14:49;;;;;;;11.02;6.40;;;;;;;8.91;100.00;99830.47;4990001;28;20427;-81
2024/04/04 00:17:16;;;;;;;11.40;6.65;;;;;;;8.95;100.00;99832.34;4973624;28;20443;-81
2024/04/04 00:19:45;;;;;;;11.87;6.83;;;;;;;8.89;100.00;99836.19;4983895;28;20460;-80
2024/04/04 00:22:12;;;;;;;11.60;6.60;;;;;;;8.83;100.00;99826.50;4979858;28;20433;-80
2024/04/04 00:24:39;;;;;;;12.90;6.72;;;;;;;8.93;100.00;99829.09;4984189;28;20431;-81
2024/04/04 00:27:06;;;;;;;11.48;6.47;;;;;;;8.93;100.00;99829.09;4988883;28;20435;-81
2024/04/04 00:29:33;;;;;;;11.88;6.53;;;;;;;8.84;100.00;99830.84;4971188;28;20429;-81
2024/04/04 00:32:00;;;;;;;12.88;7.10;;;;;;;8.82;100.00;99839.28;4971856;28;20422;-81
2024/04/04 00:34:27;;;;;;;10.50;6.32;;;;;;;8.78;100.00;99838.25;4971270;28;20440;-81
2024/04/04 00:36:55;;;;;;;10.88;6.43;;;;;;;8.76;100.00;99835.00;4975358;28;20432;-81
2024/04/04 00:39:23;;;;;;;13.50;6.47;;;;;;;8.72;100.00;99835.88;4992058;28;20773;-81
2024/04/04 00:41:51;;;;;;;14.48;6.63;;;;;;;8.71;100.00;99836.97;4975061;28;20432;-81
2024/04/04 00:44:18;;;;;;;10.20;6.50;;;;;;;8.67;100.00;99826.69;4974579;28;21166;-81
2024/04/04 00:46:45;;;;;;;11.23;6.72;;;;;;;8.73;100.00;99829.31;4992515;28;20496;-80
2024/04/04 00:49:12;;;;;;;11.95;6.10;;;;;;;8.70;100.00;99832.63;4969086;28;20439;-80
2024/04/04 00:51:40;;;;;;;11.32;6.57;;;;;;;8.69;100.00;99831.81;4985670;28;21086;-81
2024/04/04 00:54:08;;;;;;;12.00;6.63;;;;;;;8.71;100.00;99835.03;4969036;28;20443;-81
2024/04/04 00:56:36;;;;;;;12.35;6.45;;;;;;;8.88;100.00;99845.44;4990997;28;20762;-81
2024/04/04 00:59:02;;;;;;;10.38;5.80;;;;;;;8.74;100.00;99837.19;4981305;28;20429;-80
2024/04/04 01:01:30;;;;;;;11.35;6.47;;;;;;;8.90;100.00;99842.44;4990019;28;20429;-81
2024/04/04 01:03:56;;;;;;;10.20;6.40;;;;;;;8.84;100.00;99839.78;4987978;28;20438;-81
2024/04/04 01:06:30;;;;;;;11.82;6.47;;;;;;;8.95;100.00;99840.47;4990143;28;20422;-81
2024/04/04 01:08:58;;;;;;;12.82;6.43;;;;;;;8.81;100.00;99845.78;4973246;28;20790;-80
2024/04/04 01:11:27;;;;;;;9.93;6.47;;;;;;;8.74;100.00;99839.09;4974420;28;20512;-81
2024/04/04 01:13:53;;;;;;;12.00;6.43;;;;;;;8.72;100.00;99841.28;4982812;28;20444;-81
2024/04/04 01:16:21;;;;;;;10.55;6.35;;;;;;;8.68;100.00;99841.84;4990280;28;20432;-81
2024/04/04 01:18:48;;;;;;;11.77;6.20;;;;;;;8.66;100.00;99846.75;4972609;28;20858;-81
2024/04/04 01:21:18;;;;;;;11.48;6.55;;;;;;;8.71;100.00;99853.22;4991220;28;20443;-81
2024/04/04 01:23:46;;;;;;;12.35;6.55;;;;;;;8.78;100.00;99849.09;4991212;28;20417;-81
2024/04/04 01:26:14;;;;;;;13.90;6.88;;;;;;;8.71;100.00;99848.59;4990668;28;21136;-80
2024/04/04 01:28:40;;;;;;;11.35;6.25;;;;;;;8.72;100.00;99847.50;4981692;28;20936;-81
2024/04/04 01:31:08;;;;;;;12.27;6.70;;;;;;;8.73;100.00;99853.75;4988763;28;20437;-80
2024/04/04 01:33:34;;;;;;;11.20;6.93;;;;;;;8.74;100.00;99847.22;4991819;28;20427;-81
2024/04/04 01:36:02;;;;;;;13.45;7.07;;;;;;;8.72;100.00;99846.72;4975388;28;20427;-81
2024/04/04 01:38:28;;;;;;;15.65;7.60;;;;;;;8.73;100.00;99848.31;4989364;28;20599;-81
2024/04/04 01:40:57;;;;;;;13.20;7.63;;;;;;;8.83;100.00;99845.50;4992989;28;20436;-81
2024/04/04 01:43:24;;;;;;;12.88;7.03;;;;;;;8.81;100.00;99847.69;4973165;28;20424;-81
2024/04/04 01:45:51;;;;;;;12.48;7.30;;;;;;;8.79;100.00;99847.19;4974717;28;20413;-80
2024/04/04 01:48:17;;;;;;;13.47;7.53;;;;;;;8.83;100.00;99848.22;4972710;28;20515;-80
2024/04/04 01:50:45;;;;;;;13.05;7.35;;;;;;;8.76;100.00;99848.56;4988873;28;20908;-80
2024/04/04 01:53:11;;;;;;;11.68;6.55;;;;;;;8.71;100.00;99864.09;4984545;28;20459;-80
2024/04/04 01:55:39;;;;;;;11.68;5.90;;;;;;;8.71;100.00;99854.03;4991731;28;20903;-80
2024/04/04 01:58:09;;;;;;;10.93;6.05;;;;;;;8.72;100.00;99852.16;4981274;28;20916;-80
2024/04/04 02:00:36;;;;;;;9.93;5.95;;;;;;;8.66;100.00;99859.53;4988632;28;20428;-80
2024/04/04 02:03:04;;;;;;;10.73;6.30;;;;;;;8.66;100.00;99856.81;4975370;28;20429;-80
2024/04/04 02:05:33;;;;;;;12.10;6.70;;;;;;;8.65;100.00;99855.19;4981587;28;20436;-80
2024/04/04 02:07:59;;;;;;;11.55;6.03;;;;;;;8.73;100.00;99851.03;4985426;28;20420;-80
2024/04/04 02:10:26;;;;;;;14.40;7.57;;;;;;;8.77;100.00;99841.22;4989712;28;20425;-80
2024/04/04 02:12:53;;;;;;;14.65;7.18;;;;;;;8.67;100.00;99859.25;4989653;28;20420;-80
2024/04/04 02:15:22;;;;;;;15.20;7.38;;;;;;;8.63;100.00;99850.06;4974492;28;20418;-80
2024/04/04 02:17:48;;;;;;;13.35;7.18;;;;;;;8.68;100.00;99844.56;4972539;28;20424;-80
2024/04/04 02:20:16;;;;;;;13.27;7.57;;;;;;;8.70;100.00;99847.00;4988348;28;20429;-80
2024/04/04 02:22:42;;;;;;;13.73;7.47;;;;;;;8.56;100.00;99844.16;4984362;28;20433;-81
2024/04/04 02:25:10;;;;;;;13.75;7.80;;;;;;;8.66;100.00;99844.06;4989971;28;20450;-81
2024/04/04 02:27:37;;;;;;;15.50;8.23;;;;;;;8.67;100.00;99847.56;4988976;28;20424;-80
2024/04/04 02:30:05;;;;;;;15.73;7.88;;;;;;;8.66;100.00;99844.06;4972177;28;20433;-80
2024/04/04 02:32:34;;;;;;;14.30;7.55;;;;;;;8.75;100.00;99848.84;5001349;28;20892;-81
2024/04/04 02:35:01;;;;;;;17.75;8.55;;;;;;;8.74;100.00;99842.63;4971609;28;20788;-81
2024/04/04 02:37:28;;;;;;;15.90;7.90;;;;;;;8.65;100.00;99844.34;4987400;28;20444;-81
2024/04/04 02:39:55;;;;;;;18.50;8.30;;;;;;;8.66;100.00;99841.34;4990290;28;20424;-81
2024/04/04 02:42:22;;;;;;;13.57;7.80;;;;;;;8.65;100.00;99839.72;4972118;28;20516;-80
2024/04/04 02:44:49;;;;;;;15.35;8.23;;;;;;;8.67;100.00;99831.28;4973738;28;20792;-81
2024/04/04 02:47:16;;;;;;;14.38;7.97;;;;;;;8.62;100.00;99831.38;5005459;28;21110;-80
2024/04/04 02:49:44;;;;;;;15.27;8.18;;;;;;;8.56;100.00;99837.91;4972785;28;20440;-81
2024/04/04 02:52:11;;;;;;;15.85;7.70;;;;;;;8.47;100.00;99843.16;4973260;28;20446;-80
2024/04/04 02:54:38;;;;;;;17.38;7.93;;;;;;;8.41;100.00;99850.50;4989712;28;20439;-80
2024/04/04 02:57:05;;;;;;;14.68;8.00;;;;;;;8.37;100.00;99838.63;4987087;28;20422;-81
2024/04/04 02:59:32;;;;;;;14.68;7.90;;;;;;;8.32;100.00;99849.50;4989670;28;20436;-80
2024/04/04 03:01:59;;;;;;;15.93;8.00;;;;;;;8.29;100.00;99850.09;4987707;28;21097;-80
2024/04/04 03:04:26;;;;;;;16.65;8.07;;;;;;;8.21;100.00;99851.50;4971593;28;20437;-80
2024/04/04 03:06:55;;;;;;;15.43;7.88;;;;;;;8.18;100.00;99841.22;4972692;28;20420;-81
2024/04/04 03:09:23;;;;;;;15.40;7.82;;;;;;;8.18;100.00;99846.66;4988524;28;20424;-81
2024/04/04 03:11:50;;;;;;;16.52;8.35;;;;;;;8.23;100.00;99846.63;5004508;28;20777;-80
2024/04/04 03:14:16;;;;;;;17.20;8.20;;;;;;;8.38;100.00;99847.56;4986470;28;20440;-81
2024/04/04 03:16:44;;;;;;;15.40;7.78;;;;;;;8.47;100.00;99848.59;4972548;28;20426;-81
2024/04/04 03:19:11;;;;;;;15.52;7.82;;;;;;;8.37;100.00;99849.47;4982290;28;20517;-81
2024/04/04 03:21:38;;;;;;;17.65;7.60;;;;;;;8.34;100.00;99853.56;4989303;28;20421;-80
2024/04/04 03:24:06;;;;;;;18.87;8.20;;;;;;;8.39;100.00;99854.59;4979999;28;21229;-81
2024/04/04 03:26:34;;;;;;;15.82;7.50;;;;;;;8.38;100.00;99858.41;4972176;28;20435;-81
2024/04/04 03:29:01;;;;;;;14.43;7.45;;;;;;;8.28;100.00;99854.69;4968136;28;20433;-81
2024/04/04 03:31:28;;;;;;;15.25;7.80;;;;;;;8.33;100.00;99861.97;4987492;28;20428;-80
2024/04/04 03:33:55;;;;;;;17.87;8.43;;;;;;;8.37;100.00;99854.06;4985915;28;20515;-81
2024/04/04 03:36:22;;;;;;;15.70;7.40;;;;;;;8.33;100.00;99849.22;4982839;28;20426;-81
2024/04/04 03:38:50;;;;;;;17.60;7.57;;;;;;;8.37;100.00;99852.19;4988502;28;20432;-81
2024/04/04 03:41:19;;;;;;;12.45;6.80;;;;;;;8.37;100.00;99854.88;4988454;28;20777;-81
2024/04/04 03:43:47;;;;;;;17.20;7.43;;;;;;;8.24;100.00;99842.78;4967044;28;20861;-81
2024/04/04 03:46:17;;;;;;;14.90;7.28;;;;;;;8.26;100.00;99848.75;4983655;28;20428;-81
2024/04/04 03:48:45;;;;;;;18.77;7.30;;;;;;;8.31;100.00;99850.59;4978417;28;20905;-81
2024/04/04 03:51:12;;;;;;;13.10;6.77;;;;;;;8.24;100.00;99842.00;4988647;28;20792;-81
2024/04/04 03:53:39;;;;;;;14.93;7.03;;;;;;;8.28;100.00;99843.03;4986015;28;20420;-81
2024/04/04 03:56:10;;;;;;;16.80;7.03;;;;;;;8.19;100.00;99850.97;4989978;28;21064;-81
2024/04/04 03:58:38;;;;;;;12.80;6.90;;;;;;;8.28;100.00;99841.13;4989239;28;20421;-81
2024/04/04 04:01:05;;;;;;;18.37;7.20;;;;;;;8.22;100.00;99838.78;4970905;28;20527;-79
2024/04/04 04:03:33;;;;;;;15.23;7.30;;;;;;;8.16;100.00;99835.28;4988059;28;20436;-81
2024/04/04 04:06:00;;;;;;;13.75;6.90;;;;;;;8.24;100.00;99837.38;4987890;28;20908;-81
2024/04/04 04:08:28;;;;;;;14.25;6.50;;;;;;;8.25;100.00;99840.91;4986966;28;20449;-81
2024/04/04 04:10:55;;;;;;;14.07;6.40;;;;;;;8.14;100.00;99846.41;4989977;28;20428;-81
2024/04/04 04:13:22;;;;;;;14.45;6.80;;;;;;;8.07;100.00;99842.41;4989694;28;20443;-81
2024/04/04 04:15:57;;;;;;;17.02;6.30;;;;;;;8.19;100.00;99848.28;4991887;28;20420;-81
2024/04/04 04:18:25;;;;;;;15.10;6.85;;;;;;;8.11;100.00;99848.88;4991117;28;20414;-81
2024/04/04 04:23:37;;;;;;;14.02;6.47;;;;;;;8.15;100.00;99850.72;4987900;28;20459;-80
2024/04/04 04:26:03;;;;;;;13.43;5.90;;;;;;;8.19;100.00;99859.13;4975000;28;20431;-80
2024/04/04 04:28:31;;;;;;;18.73;6.10;;;;;;;8.11;100.00;99859.72;4975288;28;20437;-81
2024/04/04 04:31:00;;;;;;;17.13;6.20;;;;;;;8.16;100.00;99860.50;4975824;28;20424;-81
2024/04/04 04:33:27;;;;;;;15.90;6.00;;;;;;;8.07;100.00;99859.47;4976307;28;20424;-80
2024/04/04 04:35:54;;;;;;;13.30;5.82;;;;;;;7.99;100.00;99851.94;4990823;28;21148;-81
2024/04/04 04:38:21;;;;;;;12.88;5.80;;;;;;;7.96;100.00;99852.50;4988753;28;21112;-80
2024/04/04 04:40:51;;;;;;;14.30;5.90;;;;;;;7.93;100.00;99859.31;4971681;28;20444;-81
2024/04/04 04:43:17;;;;;;;14.43;5.80;;;;;;;7.96;100.00;99847.91;4989786;28;20422;-81
2024/04/04 04:45:45;;;;;;;12.13;5.50;;;;;;;7.93;100.00;99848.47;4975201;28;20439;-80
2024/04/04 04:48:13;;;;;;;12.57;5.20;;;;;;;7.91;100.00;99847.97;4981262;28;20910;-81
2024/04/04 04:50:40;;;;;;;14.75;5.57;;;;;;;7.89;100.00;99843.91;4992030;28;20420;-80
2024/04/04 04:53:07;;;;;;;15.20;5.25;;;;;;;7.95;100.00;99853.59;4991622;28;20915;-81
2024/04/04 04:55:34;;;;;;;14.63;5.60;;;;;;;7.97;100.00;99849.53;4992568;28;20420;-81
2024/04/04 04:58:01;;;;;;;13.88;5.82;;;;;;;7.79;100.00;99861.84;4991205;28;20432;-80
2024/04/04 05:00:28;;;;;;;16.10;6.32;;;;;;;7.75;100.00;99858.06;4986931;28;20420;-81
2024/04/04 05:02:55;;;;;;;14.07;6.18;;;;;;;7.67;100.00;99855.97;4987210;28;21150;-81
2024/04/04 05:05:24;;;;;;;14.55;5.50;;;;;;;7.61;100.00;99866.03;4990417;28;20421;-80
2024/04/04 05:07:51;;;;;;;13.32;5.00;;;;;;;7.52;100.00;99864.19;4989346;28;20442;-81
2024/04/04 05:10:18;;;;;;;12.68;5.10;;;;;;;7.58;100.00;99860.34;4979831;28;20425;-81
2024/04/04 05:12:44;;;;;;;11.93;4.68;;;;;;;7.43;100.00;99856.66;4991083;28;20797;-81
2024/04/04 05:15:12;;;;;;;14.80;4.83;;;;;;;7.34;100.00;99862.94;4986895;28;20444;-81
2024/04/04 05:17:38;;;;;;;12.02;4.43;;;;;;;7.29;100.00;99850.22;4989738;28;20443;-81
2024/04/04 05:20:07;;;;;;;13.57;4.60;;;;;;;7.29;100.00;99859.16;4985122;28;20412;-81
2024/04/04 05:22:35;;;;;;;9.07;4.35;;;;;;;7.31;100.00;99858.88;4974208;28;20421;-80
2024/04/04 05:25:02;;;;;;;12.48;4.30;;;;;;;7.35;100.00;99859.94;4990244;28;20471;-81
2024/04/04 05:27:28;;;;;;;8.32;4.30;;;;;;;7.46;100.00;99863.41;4991094;28;20417;-81
2024/04/04 05:29:56;;;;;;;10.18;4.28;;;;;;;7.42;100.00;99856.94;4981164;28;20449;-81
2024/04/04 05:32:23;;;;;;;12.80;4.27;;;;;;;7.53;100.00;99857.69;4987034;28;20785;-81
2024/04/04 05:34:51;;;;;;;12.65;4.22;;;;;;;7.49;100.00;99860.13;4980242;28;20804;-81
2024/04/04 05:37:18;;;;;;;12.45;4.50;;;;;;;7.53;100.00;99857.69;4984785;28;20428;-80
2024/04/04 05:39:46;;;;;;;10.93;4.23;;;;;;;7.56;100.00;99846.28;4973660;28;20447;-81
2024/04/04 05:42:13;;;;;;;13.73;4.30;;;;;;;7.69;100.00;99851.06;4987669;28;20425;-81
2024/04/04 05:44:41;;;;;;;12.52;4.10;;;;;;;7.73;100.00;99860.25;4978430;28;20918;-81
2024/04/04 05:47:07;;;;;;;12.90;3.88;;;;;;;7.99;100.00;99857.38;4990733;28;20421;-80
2024/04/04 05:49:35;;;;;;;11.95;3.97;;;;;;;7.90;100.00;99859.06;4973851;28;20780;-80
2024/04/04 05:52:01;;;;;;;14.07;4.00;;;;;;;7.94;100.00;99860.94;4983734;28;20441;-80
2024/04/04 05:54:28;;;;;;;12.55;3.70;;;;;;;7.90;100.00;99864.47;4985338;28;20429;-81
2024/04/04 05:56:56;;;;;;;9.27;3.50;;;;;;;8.05;100.00;99877.09;4987270;28;20429;-80
2024/04/04 05:59:24;;;;;;;10.90;3.53;;;;;;;8.07;100.00;99867.59;4988793;28;20441;-81
2024/04/04 06:01:50;;;;;;;11.50;3.60;;;;;;;8.18;100.00;99866.41;4979557;28;20432;-81
2024/04/04 06:04:18;;;;;;;8.98;3.30;;;;;;;8.33;100.00;99876.34;4984291;28;20429;-80
2024/04/04 06:06:45;;;;;;;11.60;3.22;;;;;;;8.40;100.00;99873.28;4986580;28;20420;-81
2024/04/04 06:09:13;;;;;;;8.20;2.80;;;;;;;8.48;100.00;99872.72;4970929;28;20448;-80
2024/04/04 06:11:40;;;;;;;8.23;2.80;;;;;;;8.50;100.00;99865.06;4989245;28;20428;-81
2024/04/04 06:14:08;;;;;;;10.52;3.00;;;;;;;8.55;100.00;99872.38;4983501;28;20428;-81
2024/04/04 06:16:35;;;;;;;9.70;2.63;;;;;;;8.47;100.00;99875.72;4987795;28;20424;-81
2024/04/04 06:19:03;;;;;;;7.07;2.47;;;;;;;8.46;100.00;99872.16;4988560;28;20431;-81
2024/04/04 06:21:29;;;;;;;8.63;2.65;;;;;;;8.48;100.00;99880.03;4975210;28;20441;-81
2024/04/04 06:23:57;;;;;;;10.07;2.70;;;;;;;8.60;100.00;99885.88;4972406;28;20443;-81
2024/04/04 06:26:26;;;;;;;11.27;2.60;;;;;;;8.60;100.00;99882.34;4974743;28;21116;-81
2024/04/04 06:28:53;;;;;;;8.98;2.47;;;;;;;8.61;100.00;99886.69;4989499;28;20409;-81
2024/04/04 06:31:21;;;;;;;8.23;2.30;;;;;;;8.54;100.00;99878.09;4968770;28;20840;-80
2024/04/04 06:33:49;;;;;;;10.43;2.53;;;;;;;8.59;100.00;99892.41;4979227;28;20439;-81
2024/04/04 06:36:16;;;;;;;8.07;2.47;;;;;;;8.67;100.00;99891.78;4984519;28;20432;-80
2024/04/04 06:38:43;;;;;;;9.23;2.40;;;;;;;8.74;100.00;99891.47;4985662;28;21197;-81
2024/04/04 06:41:10;;;;;;;8.32;2.55;;;;;;;8.81;100.00;99883.78;4986399;28;20437;-81
2024/04/04 06:43:37;;;;;;;8.50;2.33;;;;;;;8.81;100.00;99891.09;4982922;28;20736;-81
2024/04/04 06:46:04;;;;;;;6.83;2.27;;;;;;;8.76;100.00;99894.69;4983962;28;20444;-81
2024/04/04 06:48:40;;;;;;;10.48;2.15;;;;;;;8.65;100.00;99890.44;4970052;28;20926;-81
2024/04/04 06:51:07;;;;;;;5.05;2.13;;;;;;;8.70;100.00;99885.00;4961943;28;21220;-81
2024/04/04 06:53:35;;;;;;;7.13;2.10;;;;;;;8.57;100.00;99882.94;4967684;28;20439;-81
2024/04/04 06:56:01;;;;;;;7.30;1.90;;;;;;;8.50;100.00;99870.50;4968673;28;20455;-81
2024/04/04 06:58:29;;;;;;;7.22;2.03;;;;;;;8.65;100.00;99869.56;4972262;28;20435;-80
2024/04/04 07:00:55;;;;;;;7.50;1.92;;;;;;;8.80;100.00;99875.94;4969100;28;20441;-82
2024/04/04 07:03:23;;;;;;;7.30;2.00;;;;;;;8.94;100.00;99865.19;4982033;28;20421;-82
2024/04/04 07:05:50;;;;;;;7.97;2.30;;;;;;;8.90;100.00;99858.72;5006427;28;20542;-81
2024/04/04 07:08:18;;;;;;;6.45;1.85;;;;;;;9.06;100.00;99859.34;5005249;28;20428;-81
2024/04/04 07:10:45;;;;;;;6.82;2.15;;;;;;;9.18;100.00;99855.13;4990037;28;20415;-81
2024/04/04 07:13:14;;;;;;;9.63;2.17;;;;;;;9.14;100.00;99859.53;4990611;28;21302;-82
2024/04/04 07:15:40;;;;;;;8.40;2.10;;;;;;;9.13;100.00;99859.81;4965491;28;20433;-83
2024/04/04 07:18:09;;;;;;;7.95;1.88;;;;;;;9.28;100.00;99864.22;4989699;28;20440;-84
2024/04/04 07:20:36;;;;;;;7.35;1.60;;;;;;;9.19;100.00;99854.00;4975008;28;20441;-82
2024/04/04 07:23:05;;;;;;;7.53;1.83;;;;;;;8.99;100.00;99852.38;4987586;28;20432;-81
2024/04/04 07:25:32;;;;;;;5.95;1.67;;;;;;;8.97;100.00;99857.25;4971958;28;20777;-81
2024/04/04 07:28:01;;;;;;;7.20;1.80;;;;;;;8.97;100.00;99856.47;4989585;28;20418;-83
2024/04/04 07:30:30;;;;;;;9.77;2.20;;;;;;;8.95;100.00;99858.66;4965734;28;20437;-84
2024/04/04 07:32:57;;;;;;;6.15;1.67;;;;;;;8.98;100.00;99848.03;4966136;28;20432;-84
2024/04/04 07:35:24;;;;;;;5.57;1.90;;;;;;;8.92;100.00;99854.63;4981428;28;20433;-85
2024/04/04 07:37:51;;;;;;;6.65;1.60;;;;;;;9.06;100.00;99856.63;4981238;28;20434;-83
2024/04/04 07:40:19;;;;;;;8.25;1.50;;;;;;;9.02;100.00;99849.06;4971066;28;20444;-84
2024/04/04 07:42:46;;;;;;;8.00;1.90;;;;;;;9.13;100.00;99844.34;4969963;28;20434;-83
2024/04/04 07:45:13;;;;;;;7.30;1.77;;;;;;;9.31;100.00;99852.81;4986898;28;20423;-83
2024/04/04 07:47:40;;;;;;;10.77;2.25;;;;;;;9.29;100.00;99844.94;4990921;28;20910;-83
2024/04/04 07:50:08;;;;;;;6.57;1.73;;;;;;;9.26;100.00;99850.16;4992921;28;20889;-83
2024/04/04 07:52:34;;;;;;;7.75;1.77;;;;;;;9.39;100.00;99843.19;4954620;28;20768;-84
2024/04/04 07:55:03;;;;;;;6.95;1.80;;;;;;;9.63;100.00;99835.78;4979075;28;20427;-83
2024/04/04 07:57:31;;;;;;;11.18;1.95;;;;;;;9.59;100.00;99845.63;4975043;28;20420;-84
2024/04/04 07:59:58;;;;;;;7.90;1.70;;;;;;;9.77;100.00;99838.56;4965465;28;20432;-82
2024/04/04 08:02:26;;;;;;;7.85;1.95;;;;;;;10.02;100.00;99839.28;4949693;28;20424;-81
2024/04/04 08:04:54;;;;;;;4.80;1.60;;;;;;;10.15;100.00;99835.78;4960247;28;20800;-84
2024/04/04 08:07:21;;;;;;;5.93;1.60;;;;;;;10.22;100.00;99843.56;4978265;28;20443;-82
2024/04/04 08:09:48;;;;;;;7.55;1.50;;;;;;;9.99;100.00;99837.16;4952467;28;21094;-81
2024/04/04 08:12:14;;;;;;;8.68;3.05;;;;;;;10.07;100.00;99831.03;4970938;28;20420;-81
2024/04/04 08:14:46;;;;;;;7.07;1.60;;;;;;;10.01;100.00;99822.16;4970183;28;20436;-82
2024/04/04 08:17:12;;;;;;;7.20;1.65;;;;;;;9.96;100.00;99818.72;4949596;28;20483;-82
2024/04/04 08:19:40;;;;;;;7.40;1.60;;;;;;;10.12;100.00;99820.09;4965305;28;20429;-82
2024/04/04 08:22:07;;;;;;;5.43;1.67;;;;;;;10.22;100.00;99816.38;4956340;28;20445;-84
2024/04/04 08:24:35;;;;;;;7.05;1.50;;;;;;;10.22;100.00;99810.94;4950521;28;20452;-83
2024/04/04 08:27:01;;;;;;;6.95;1.52;;;;;;;10.23;100.00;99809.81;4953634;28;20437;-81
2024/04/04 08:29:30;;;;;;;7.28;1.75;;;;;;;10.13;100.00;99810.00;4951846;28;20432;-83
2024/04/04 08:31:58;;;;;;;8.27;1.52;;;;;;;10.24;100.00;99805.22;4944909;28;20429;-82
2024/04/04 08:34:25;;;;;;;7.90;1.58;;;;;;;10.23;100.00;99804.38;4949092;28;20424;-81
2024/04/04 08:36:51;;;;;;;6.57;1.65;;;;;;;10.23;100.00;99801.66;4971650;28;20451;-85
2024/04/04 08:39:20;;;;;;;7.78;1.60;;;;;;;10.19;100.00;99801.47;4950932;28;20459;-84
2024/04/04 08:41:46;;;;;;;4.47;1.50;;;;;;;10.07;100.00;99803.03;4973337;28;21300;-81
2024/04/04 08:44:14;;;;;;;5.03;1.50;;;;;;;10.08;100.00;99796.50;4952121;28;20540;-82
2024/04/04 08:46:41;;;;;;;6.23;1.70;;;;;;;10.01;100.00;99791.44;4948642;28;20981;-82
2024/04/04 08:49:13;;;;;;;5.70;1.15;;;;;;;9.97;100.00;99801.28;4948367;28;20436;-84
2024/04/04 08:51:40;;;;;;;6.50;1.30;;;;;;;10.04;100.00;99793.59;4966481;28;20429;-83
2024/04/04 08:54:07;;;;;;;5.97;1.50;;;;;;;9.91;100.00;99799.78;4929135;28;20436;-83
2024/04/04 08:56:34;;;;;;;6.15;1.30;;;;;;;9.86;100.00;99797.97;4964824;28;20408;-82
2024/04/04 08:59:02;;;;;;;8.45;2.45;;;;;;;9.68;100.00;99805.00;4954139;28;20445;-83
2024/04/04 09:01:28;;;;;;;5.35;1.75;;;;;;;9.64;100.00;99801.25;4964963;28;20456;-81
2024/04/04 09:03:56;;;;;;;5.05;1.70;;;;;;;9.66;100.00;99802.59;4949621;28;20460;-82
2024/04/04 09:06:24;;;;;;;7.13;1.90;;;;;;;9.73;100.00;99796.78;4983186;28;20449;-82
2024/04/04 09:08:54;;;;;;;8.35;1.80;;;;;;;9.75;100.00;99786.44;4969496;28;20981;-85
2024/04/04 09:11:24;;;;;;;5.72;1.50;;;;;;;9.73;100.00;99793.28;4969594;28;20475;-82
2024/04/04 09:14:02;;;;;;;7.40;2.00;;;;;;;9.68;100.00;99788.69;4954598;28;20444;-82
2024/04/04 09:16:29;;;;;;;6.28;1.60;;;;;;;9.60;100.00;99783.94;4968705;28;20422;-84
2024/04/04 09:19:07;;;;;;;6.67;1.40;;;;;;;9.47;100.00;99790.94;4966920;28;20436;-85
2024/04/04 09:21:36;;;;;;;6.65;1.70;;;;;;;9.41;100.00;99776.63;4979036;28;20427;-83
2024/04/04 09:24:05;;;;;;;6.73;1.50;;;;;;;9.48;100.00;99773.53;4961831;28;20543;-84
2024/04/04 09:26:31;;;;;;;6.07;1.60;;;;;;;9.41;100.00;99771.19;4982488;28;20429;-84
2024/04/04 09:28:59;;;;;;;5.97;1.58;;;;;;;9.43;100.00;99765.47;4972004;28;20429;-84
2024/04/04 09:31:27;;;;;;;10.05;2.42;;;;;;;9.44;100.00;99767.09;4963552;28;20424;-83
2024/04/04 09:33:57;;;;;;;7.03;1.60;;;;;;;9.49;100.00;99756.16;4968105;28;20433;-83
2024/04/04 09:36:25;;;;;;;8.20;1.60;;;;;;;9.41;100.00;99760.31;4970414;28;20433;-82
2024/04/04 09:38:55;;;;;;;7.07;1.95;;;;;;;9.38;100.00;99766.34;4969355;28;20440;-83
2024/04/04 09:41:22;;;;;;;5.22;1.90;;;;;;;9.28;100.00;99755.63;4965935;28;20419;-81
2024/04/04 09:43:50;;;;;;;8.93;1.80;;;;;;;9.22;100.00;99746.75;4963962;28;20425;-84
2024/04/04 09:46:17;;;;;;;6.65;1.67;;;;;;;9.26;100.00;99739.63;4956062;28;20487;-82
2024/04/04 09:48:46;;;;;;;7.40;2.00;;;;;;;9.30;100.00;99737.16;4968959;28;20436;-83
2024/04/04 09:51:12;;;;;;;7.97;1.73;;;;;;;9.22;100.00;99733.19;4968973;28;20431;-82
2024/04/04 09:53:41;;;;;;;7.65;1.70;;;;;;;9.32;100.00;99738.47;4942520;28;20432;-82
2024/04/04 09:56:10;;;;;;;8.52;1.70;;;;;;;9.34;100.00;99728.09;4965902;28;20432;-81
2024/04/04 09:58:41;;;;;;;7.70;1.63;;;;;;;9.40;100.00;99723.41;4962647;28;20433;-84
2024/04/04 10:01:18;;;;;;;8.48;2.00;;;;;;;9.43;100.00;99725.56;4961561;28;20438;-83
2024/04/04 10:03:57;;;;;;;8.70;1.87;;;;;;;9.36;100.00;99716.94;4969725;28;20420;-83
2024/04/04 10:06:29;;;;;;;10.60;1.88;;;;;;;9.32;100.00;99718.63;4959629;28;20893;-82
2024/04/04 10:08:58;;;;;;;8.80;1.70;;;;;;;9.43;100.00;99706.53;4967901;28;20437;-80
2024/04/04 10:11:30;;;;;;;8.65;2.50;;;;;;;9.33;100.00;99707.47;4962884;28;20432;-82
2024/04/04 10:14:01;;;;;;;7.30;2.20;;;;;;;9.39;100.00;99707.41;4967121;28;20432;-83
2024/04/04 10:16:33;;;;;;;7.77;2.23;;;;;;;9.32;100.00;99700.47;4964570;28;20439;-81
2024/04/04 10:19:09;;;;;;;10.65;3.50;;;;;;;9.33;100.00;99699.34;4964067;28;20424;-82
2024/04/04 10:21:37;;;;;;;6.38;2.78;;;;;;;9.39;100.00;99696.53;4972848;28;20424;-80
2024/04/04 10:24:05;;;;;;;6.60;2.60;;;;;;;9.43;100.00;99681.28;4966262;28;20451;-83
2024/04/04 10:26:33;;;;;;;9.02;2.53;;;;;;;9.33;100.00;99687.69;4956608;28;20444;-83
2024/04/04 10:29:02;;;;;;;9.90;2.67;;;;;;;9.45;100.00;99682.59;4964589;28;20433;-82
2024/04/04 10:31:29;;;;;;;6.80;2.25;;;;;;;9.26;100.00;99684.53;4968154;28;20433;-81
2024/04/04 10:34:05;;;;;;;11.05;2.78;;;;;;;9.20;100.00;99683.81;4969085;28;20436;-82
2024/04/04 10:36:42;;;;;;;11.05;2.08;;;;;;;9.11;100.00;99677.44;4956401;28;20482;-82
2024/04/04 10:39:12;;;;;;;8.13;2.53;;;;;;;9.10;100.00;99679.34;4962285;28;20500;-83
2024/04/04 10:41:41;;;;;;;7.05;2.40;;;;;;;9.07;100.00;99669.06;4969724;28;20425;-83
2024/04/04 10:44:11;;;;;;;8.85;2.63;;;;;;;9.14;100.00;99661.38;4962991;28;21884;-82
2024/04/04 10:46:42;;;;;;;10.13;2.60;;;;;;;9.05;100.00;99662.34;4962940;28;20451;-83
2024/04/04 10:49:11;;;;;;;6.37;2.40;;;;;;;9.10;100.00;99659.53;4963071;28;20511;-82
2024/04/04 10:51:42;;;;;;;5.68;2.30;;;;;;;9.10;100.00;99656.81;4951336;28;21114;-82
2024/04/04 10:54:10;;;;;;;8.52;2.50;;;;;;;9.10;100.00;99659.53;4933075;28;20972;-83
2024/04/04 10:56:36;;;;;;;7.35;2.88;;;;;;;9.11;100.00;99653.00;4952269;28;20436;-83
2024/04/04 10:59:06;;;;;;;10.75;3.03;;;;;;;8.95;100.00;99644.28;4958307;28;21243;-82
2024/04/04 11:01:32;;;;;;;10.00;3.70;;;;;;;9.05;100.00;99643.34;4956668;28;20409;-83
2024/04/04 11:04:00;;;;;;;8.55;3.42;;;;;;;9.10;100.00;99643.25;4967683;28;20433;-83
2024/04/04 11:06:27;;;;;;;11.00;4.10;;;;;;;9.12;100.00;99649.19;4955125;28;20424;-82
2024/04/04 11:08:55;;;;;;;7.67;3.20;;;;;;;9.11;100.00;99642.94;4967513;28;20532;-82
2024/04/04 11:11:23;;;;;;;8.13;3.83;;;;;;;9.11;100.00;99640.22;4948888;28;20443;-82
2024/04/04 11:13:51;;;;;;;9.63;3.50;;;;;;;9.23;100.00;99639.00;4957970;28;20433;-82
2024/04/04 11:16:22;;;;;;;9.15;3.60;;;;;;;9.21;100.00;99627.59;4958401;28;21407;-82
2024/04/04 11:18:49;;;;;;;6.88;3.53;;;;;;;9.20;100.00;99626.81;4954252;28;20434;-83
2024/04/04 11:21:16;;;;;;;8.18;3.30;;;;;;;9.17;100.00;99620.06;4939327;28;20426;-82
2024/04/04 11:23:44;;;;;;;12.50;4.25;;;;;;;9.28;100.00;99620.69;4973406;28;21039;-82
2024/04/04 11:26:10;;;;;;;11.85;5.85;;;;;;;9.28;100.00;99617.16;4957268;28;20428;-82
2024/04/04 11:28:38;;;;;;;8.30;3.70;;;;;;;9.41;100.00;99619.13;4957761;28;20440;-84
2024/04/04 11:31:04;;;;;;;8.93;4.22;;;;;;;9.37;100.00;99609.97;4958144;28;20829;-84
2024/04/04 11:33:33;;;;;;;9.98;6.20;;;;;;;9.35;100.00;99615.69;4960309;28;20805;-82
2024/04/04 11:36:00;;;;;;;9.93;3.75;;;;;;;9.43;100.00;99602.53;4957710;28;20960;-81